sensor_id;sensor_type;location;lat;lon;timestamp;temperature;humidity
37782;DHT22;23621;50.878;4.584;2023-07-31T00:02:20;23.60;81.40
37782;DHT22;23621;50.878;4.584;2023-07-31T00:05:08;23.70;81.70
37782;DHT22;23621;50.878;4.584;2023-07-31T00:07:56;23.70;81.70
37782;DHT22;23621;50.878;4.584;2023-07-31T00:10:43;23.70;81.70
37782;DHT22;23621;50.878;4.584;2023-07-31T00:13:31;23.80;81.80
37782;DHT22;23621;50.878;4.584;2023-07-31T00:16:18;23.80;81.80
37782;DHT22;23621;50.878;4.584;2023-07-31T00:19:05;23.80;81.80
37782;DHT22;23621;50.878;4.584;2023-07-31T00:21:52;23.80;81.90
37782;DHT22;23621;50.878;4.584;2023-07-31T00:24:39;23.80;81.90
37782;DHT22;23621;50.878;4.584;2023-07-31T00:27:27;23.80;82.10
37782;DHT22;23621;50.878;4.584;2023-07-31T00:30:14;23.80;82.10
37782;DHT22;23621;50.878;4.584;2023-07-31T00:33:01;23.80;82.20
37782;DHT22;23621;50.878;4.584;2023-07-31T00:35:49;23.80;82.30
37782;DHT22;23621;50.878;4.584;2023-07-31T00:38:37;23.80;82.30
37782;DHT22;23621;50.878;4.584;2023-07-31T00:41:24;23.80;82.50
37782;DHT22;23621;50.878;4.584;2023-07-31T00:44:11;23.80;82.50
37782;DHT22;23621;50.878;4.584;2023-07-31T00:46:58;23.80;82.40
37782;DHT22;23621;50.878;4.584;2023-07-31T00:49:46;23.80;82.50
37782;DHT22;23621;50.878;4.584;2023-07-31T00:52:34;23.90;82.50
37782;DHT22;23621;50.878;4.584;2023-07-31T00:55:22;23.90;82.50
37782;DHT22;23621;50.878;4.584;2023-07-31T00:58:09;23.90;82.50
37782;DHT22;23621;50.878;4.584;2023-07-31T01:00:56;23.90;82.40
37782;DHT22;23621;50.878;4.584;2023-07-31T01:03:44;23.90;82.40
37782;DHT22;23621;50.878;4.584;2023-07-31T01:10:08;23.70;82.90
37782;DHT22;23621;50.878;4.584;2023-07-31T01:12:57;23.70;83.00
37782;DHT22;23621;50.878;4.584;2023-07-31T01:15:44;23.70;82.80
37782;DHT22;23621;50.878;4.584;2023-07-31T01:18:32;23.70;82.90
37782;DHT22;23621;50.878;4.584;2023-07-31T01:27:27;23.70;82.90
37782;DHT22;23621;50.878;4.584;2023-07-31T01:30:21;23.70;82.90
37782;DHT22;23621;50.878;4.584;2023-07-31T01:33:12;23.80;82.70
37782;DHT22;23621;50.878;4.584;2023-07-31T01:35:59;23.80;82.60
37782;DHT22;23621;50.878;4.584;2023-07-31T01:38:46;23.70;82.60
37782;DHT22;23621;50.878;4.584;2023-07-31T01:41:34;23.70;82.60
37782;DHT22;23621;50.878;4.584;2023-07-31T01:44:21;23.80;82.70
37782;DHT22;23621;50.878;4.584;2023-07-31T01:47:08;23.70;82.80
37782;DHT22;23621;50.878;4.584;2023-07-31T01:49:56;23.80;82.80
37782;DHT22;23621;50.878;4.584;2023-07-31T01:52:43;23.80;82.70
37782;DHT22;23621;50.878;4.584;2023-07-31T01:55:30;23.80;82.70
37782;DHT22;23621;50.878;4.584;2023-07-31T01:58:17;23.70;82.90
37782;DHT22;23621;50.878;4.584;2023-07-31T02:01:05;23.80;83.10
37782;DHT22;23621;50.878;4.584;2023-07-31T02:03:52;23.70;83.20
37782;DHT22;23621;50.878;4.584;2023-07-31T02:06:39;23.70;83.20
37782;DHT22;23621;50.878;4.584;2023-07-31T02:09:27;23.80;83.20
37782;DHT22;23621;50.878;4.584;2023-07-31T02:12:14;23.80;83.30
37782;DHT22;23621;50.878;4.584;2023-07-31T02:15:01;23.80;83.30
37782;DHT22;23621;50.878;4.584;2023-07-31T02:17:49;23.80;83.30
37782;DHT22;23621;50.878;4.584;2023-07-31T02:20:36;23.80;83.50
37782;DHT22;23621;50.878;4.584;2023-07-31T02:23:23;23.80;83.40
37782;DHT22;23621;50.878;4.584;2023-07-31T02:26:10;23.90;83.30
37782;DHT22;23621;50.878;4.584;2023-07-31T02:28:57;23.90;83.20
37782;DHT22;23621;50.878;4.584;2023-07-31T02:31:45;23.80;83.30
37782;DHT22;23621;50.878;4.584;2023-07-31T02:34:32;23.90;83.40
37782;DHT22;23621;50.878;4.584;2023-07-31T02:37:19;23.70;83.70
37782;DHT22;23621;50.878;4.584;2023-07-31T02:40:06;23.80;83.70
37782;DHT22;23621;50.878;4.584;2023-07-31T02:42:54;23.80;83.90
37782;DHT22;23621;50.878;4.584;2023-07-31T02:45:41;23.80;84.00
37782;DHT22;23621;50.878;4.584;2023-07-31T02:48:28;23.80;83.80
37782;DHT22;23621;50.878;4.584;2023-07-31T02:51:15;23.70;84.20
37782;DHT22;23621;50.878;4.584;2023-07-31T02:54:02;23.70;85.20
37782;DHT22;23621;50.878;4.584;2023-07-31T02:56:50;23.70;84.30
37782;DHT22;23621;50.878;4.584;2023-07-31T02:59:37;23.70;84.30
37782;DHT22;23621;50.878;4.584;2023-07-31T03:02:24;23.80;84.30
37782;DHT22;23621;50.878;4.584;2023-07-31T03:05:12;23.80;84.30
37782;DHT22;23621;50.878;4.584;2023-07-31T03:07:59;23.80;84.20
37782;DHT22;23621;50.878;4.584;2023-07-31T03:10:46;23.80;84.30
37782;DHT22;23621;50.878;4.584;2023-07-31T03:13:33;23.80;84.20
37782;DHT22;23621;50.878;4.584;2023-07-31T03:16:20;23.80;84.30
37782;DHT22;23621;50.878;4.584;2023-07-31T03:19:08;23.80;84.30
37782;DHT22;23621;50.878;4.584;2023-07-31T03:21:55;23.80;84.30
37782;DHT22;23621;50.878;4.584;2023-07-31T03:24:42;23.80;84.30
37782;DHT22;23621;50.878;4.584;2023-07-31T03:27:29;23.80;84.20
37782;DHT22;23621;50.878;4.584;2023-07-31T03:30:17;23.80;84.20
37782;DHT22;23621;50.878;4.584;2023-07-31T03:33:04;23.80;84.20
37782;DHT22;23621;50.878;4.584;2023-07-31T03:35:51;23.90;84.20
37782;DHT22;23621;50.878;4.584;2023-07-31T03:38:38;24.00;84.20
37782;DHT22;23621;50.878;4.584;2023-07-31T03:41:26;24.00;84.10
37782;DHT22;23621;50.878;4.584;2023-07-31T03:44:13;24.00;84.20
37782;DHT22;23621;50.878;4.584;2023-07-31T03:47:00;23.90;84.30
37782;DHT22;23621;50.878;4.584;2023-07-31T03:49:47;24.00;85.00
37782;DHT22;23621;50.878;4.584;2023-07-31T03:52:34;23.90;84.50
37782;DHT22;23621;50.878;4.584;2023-07-31T03:55:22;23.90;84.70
37782;DHT22;23621;50.878;4.584;2023-07-31T03:58:09;23.90;84.90
37782;DHT22;23621;50.878;4.584;2023-07-31T04:00:56;23.90;84.90
37782;DHT22;23621;50.878;4.584;2023-07-31T04:03:43;23.90;85.00
37782;DHT22;23621;50.878;4.584;2023-07-31T04:06:30;23.80;85.10
37782;DHT22;23621;50.878;4.584;2023-07-31T04:09:17;23.80;85.20
37782;DHT22;23621;50.878;4.584;2023-07-31T04:12:05;23.70;85.20
37782;DHT22;23621;50.878;4.584;2023-07-31T04:14:52;23.80;85.30
37782;DHT22;23621;50.878;4.584;2023-07-31T04:17:41;23.70;85.30
37782;DHT22;23621;50.878;4.584;2023-07-31T04:20:29;23.70;85.70
37782;DHT22;23621;50.878;4.584;2023-07-31T04:23:16;23.60;85.70
37782;DHT22;23621;50.878;4.584;2023-07-31T04:26:03;23.50;85.90
37782;DHT22;23621;50.878;4.584;2023-07-31T04:28:50;23.60;85.70
37782;DHT22;23621;50.878;4.584;2023-07-31T04:31:37;23.60;85.90
37782;DHT22;23621;50.878;4.584;2023-07-31T04:34:25;23.60;85.70
37782;DHT22;23621;50.878;4.584;2023-07-31T04:37:13;23.70;85.80
37782;DHT22;23621;50.878;4.584;2023-07-31T04:40:00;23.60;86.00
37782;DHT22;23621;50.878;4.584;2023-07-31T04:42:47;23.50;86.10
37782;DHT22;23621;50.878;4.584;2023-07-31T04:45:34;23.50;86.20
37782;DHT22;23621;50.878;4.584;2023-07-31T04:48:21;23.50;86.20
37782;DHT22;23621;50.878;4.584;2023-07-31T04:51:08;23.60;86.10
37782;DHT22;23621;50.878;4.584;2023-07-31T04:53:58;23.50;86.00
37782;DHT22;23621;50.878;4.584;2023-07-31T04:56:46;23.50;85.90
37782;DHT22;23621;50.878;4.584;2023-07-31T04:59:34;23.50;86.00
37782;DHT22;23621;50.878;4.584;2023-07-31T05:02:21;23.50;85.90
37782;DHT22;23621;50.878;4.584;2023-07-31T05:05:08;23.50;85.90
37782;DHT22;23621;50.878;4.584;2023-07-31T05:07:56;23.50;85.90
37782;DHT22;23621;50.878;4.584;2023-07-31T05:10:43;23.50;85.90
37782;DHT22;23621;50.878;4.584;2023-07-31T05:13:30;23.60;85.90
37782;DHT22;23621;50.878;4.584;2023-07-31T05:16:17;23.40;86.20
37782;DHT22;23621;50.878;4.584;2023-07-31T05:19:05;23.40;86.20
37782;DHT22;23621;50.878;4.584;2023-07-31T05:21:52;23.50;86.30
37782;DHT22;23621;50.878;4.584;2023-07-31T05:24:39;23.50;86.50
37782;DHT22;23621;50.878;4.584;2023-07-31T05:27:27;23.50;86.70
37782;DHT22;23621;50.878;4.584;2023-07-31T05:30:14;23.40;86.90
37782;DHT22;23621;50.878;4.584;2023-07-31T05:33:01;23.40;87.00
37782;DHT22;23621;50.878;4.584;2023-07-31T05:35:49;23.50;87.00
37782;DHT22;23621;50.878;4.584;2023-07-31T05:38:36;23.50;87.00
37782;DHT22;23621;50.878;4.584;2023-07-31T05:41:23;23.50;87.00
37782;DHT22;23621;50.878;4.584;2023-07-31T05:44:11;23.40;87.30
37782;DHT22;23621;50.878;4.584;2023-07-31T05:46:58;23.40;87.30
37782;DHT22;23621;50.878;4.584;2023-07-31T05:49:45;23.30;87.30
37782;DHT22;23621;50.878;4.584;2023-07-31T05:52:32;23.30;87.30
37782;DHT22;23621;50.878;4.584;2023-07-31T05:55:19;23.20;88.40
37782;DHT22;23621;50.878;4.584;2023-07-31T05:58:07;23.30;87.70
37782;DHT22;23621;50.878;4.584;2023-07-31T06:00:55;23.20;87.80
37782;DHT22;23621;50.878;4.584;2023-07-31T06:03:42;23.20;87.70
37782;DHT22;23621;50.878;4.584;2023-07-31T06:06:29;23.30;87.60
37782;DHT22;23621;50.878;4.584;2023-07-31T06:09:17;23.20;87.80
37782;DHT22;23621;50.878;4.584;2023-07-31T06:12:04;23.20;87.80
37782;DHT22;23621;50.878;4.584;2023-07-31T06:14:51;23.20;87.90
37782;DHT22;23621;50.878;4.584;2023-07-31T06:17:38;23.20;87.60
37782;DHT22;23621;50.878;4.584;2023-07-31T06:20:26;23.20;87.50
37782;DHT22;23621;50.878;4.584;2023-07-31T06:23:13;23.20;87.80
37782;DHT22;23621;50.878;4.584;2023-07-31T06:26:00;23.30;87.50
37782;DHT22;23621;50.878;4.584;2023-07-31T06:28:47;23.40;87.30
37782;DHT22;23621;50.878;4.584;2023-07-31T06:31:35;23.40;87.30
37782;DHT22;23621;50.878;4.584;2023-07-31T06:34:22;23.40;87.10
37782;DHT22;23621;50.878;4.584;2023-07-31T06:37:09;23.40;87.20
37782;DHT22;23621;50.878;4.584;2023-07-31T06:39:56;23.30;87.20
37782;DHT22;23621;50.878;4.584;2023-07-31T06:42:43;23.30;87.20
37782;DHT22;23621;50.878;4.584;2023-07-31T06:45:31;23.30;87.40
37782;DHT22;23621;50.878;4.584;2023-07-31T06:48:18;23.30;87.30
37782;DHT22;23621;50.878;4.584;2023-07-31T06:51:05;23.40;87.10
37782;DHT22;23621;50.878;4.584;2023-07-31T06:53:52;23.50;86.90
37782;DHT22;23621;50.878;4.584;2023-07-31T06:56:39;23.50;87.00
37782;DHT22;23621;50.878;4.584;2023-07-31T06:59:27;23.40;87.10
37782;DHT22;23621;50.878;4.584;2023-07-31T07:02:14;23.50;86.80
37782;DHT22;23621;50.878;4.584;2023-07-31T07:05:02;23.40;86.90
37782;DHT22;23621;50.878;4.584;2023-07-31T07:07:50;23.60;87.00
37782;DHT22;23621;50.878;4.584;2023-07-31T07:10:40;23.60;86.90
37782;DHT22;23621;50.878;4.584;2023-07-31T07:13:27;23.50;86.70
37782;DHT22;23621;50.878;4.584;2023-07-31T07:16:14;23.50;87.00
37782;DHT22;23621;50.878;4.584;2023-07-31T07:19:02;23.60;86.70
37782;DHT22;23621;50.878;4.584;2023-07-31T07:21:51;23.70;86.60
37782;DHT22;23621;50.878;4.584;2023-07-31T07:24:38;23.80;86.60
37782;DHT22;23621;50.878;4.584;2023-07-31T07:27:25;23.80;86.70
37782;DHT22;23621;50.878;4.584;2023-07-31T07:30:13;23.80;86.50
37782;DHT22;23621;50.878;4.584;2023-07-31T07:33:01;24.00;86.30
37782;DHT22;23621;50.878;4.584;2023-07-31T07:35:48;24.00;86.40
37782;DHT22;23621;50.878;4.584;2023-07-31T07:38:35;24.00;85.90
37782;DHT22;23621;50.878;4.584;2023-07-31T07:41:23;24.10;85.70
37782;DHT22;23621;50.878;4.584;2023-07-31T07:44:10;24.10;85.20
37782;DHT22;23621;50.878;4.584;2023-07-31T07:46:58;24.00;85.30
37782;DHT22;23621;50.878;4.584;2023-07-31T07:49:45;24.10;85.10
37782;DHT22;23621;50.878;4.584;2023-07-31T07:52:39;24.10;84.70
37782;DHT22;23621;50.878;4.584;2023-07-31T07:55:26;24.10;84.50
37782;DHT22;23621;50.878;4.584;2023-07-31T07:58:13;24.10;84.30
37782;DHT22;23621;50.878;4.584;2023-07-31T08:01:00;24.10;84.00
37782;DHT22;23621;50.878;4.584;2023-07-31T08:03:48;24.20;84.00
37782;DHT22;23621;50.878;4.584;2023-07-31T08:06:35;24.20;84.00
37782;DHT22;23621;50.878;4.584;2023-07-31T08:09:22;24.30;83.70
37782;DHT22;23621;50.878;4.584;2023-07-31T08:12:09;24.40;83.40
37782;DHT22;23621;50.878;4.584;2023-07-31T08:14:57;24.30;83.30
37782;DHT22;23621;50.878;4.584;2023-07-31T08:17:44;24.30;83.30
37782;DHT22;23621;50.878;4.584;2023-07-31T08:20:31;24.30;82.90
37782;DHT22;23621;50.878;4.584;2023-07-31T08:23:18;24.40;82.90
37782;DHT22;23621;50.878;4.584;2023-07-31T08:26:06;24.50;82.70
37782;DHT22;23621;50.878;4.584;2023-07-31T08:28:53;24.60;82.60
37782;DHT22;23621;50.878;4.584;2023-07-31T08:31:40;24.50;82.30
37782;DHT22;23621;50.878;4.584;2023-07-31T08:34:27;24.60;82.40
37782;DHT22;23621;50.878;4.584;2023-07-31T08:37:15;24.60;82.40
37782;DHT22;23621;50.878;4.584;2023-07-31T08:40:02;24.50;82.60
37782;DHT22;23621;50.878;4.584;2023-07-31T08:42:53;24.50;83.00
37782;DHT22;23621;50.878;4.584;2023-07-31T08:45:42;24.60;82.90
37782;DHT22;23621;50.878;4.584;2023-07-31T08:48:31;24.50;83.00
37782;DHT22;23621;50.878;4.584;2023-07-31T08:51:19;24.60;82.80
37782;DHT22;23621;50.878;4.584;2023-07-31T08:54:07;24.70;82.80
37782;DHT22;23621;50.878;4.584;2023-07-31T08:56:54;24.80;82.60
37782;DHT22;23621;50.878;4.584;2023-07-31T08:59:43;24.60;82.70
37782;DHT22;23621;50.878;4.584;2023-07-31T09:05:36;24.50;82.60
37782;DHT22;23621;50.878;4.584;2023-07-31T09:08:29;24.40;82.80
37782;DHT22;23621;50.878;4.584;2023-07-31T09:11:17;24.50;83.00
37782;DHT22;23621;50.878;4.584;2023-07-31T09:14:08;24.40;82.80
37782;DHT22;23621;50.878;4.584;2023-07-31T09:16:57;24.40;82.80
37782;DHT22;23621;50.878;4.584;2023-07-31T09:19:45;24.30;83.20
37782;DHT22;23621;50.878;4.584;2023-07-31T09:22:34;24.40;83.20
37782;DHT22;23621;50.878;4.584;2023-07-31T09:25:24;24.40;83.30
37782;DHT22;23621;50.878;4.584;2023-07-31T09:28:12;24.40;83.30
37782;DHT22;23621;50.878;4.584;2023-07-31T09:30:59;24.40;83.10
37782;DHT22;23621;50.878;4.584;2023-07-31T09:33:54;24.60;83.10
37782;DHT22;23621;50.878;4.584;2023-07-31T09:36:48;24.60;83.20
37782;DHT22;23621;50.878;4.584;2023-07-31T09:39:46;24.60;83.00
37782;DHT22;23621;50.878;4.584;2023-07-31T09:42:34;24.70;83.10
37782;DHT22;23621;50.878;4.584;2023-07-31T09:45:22;24.80;83.50
37782;DHT22;23621;50.878;4.584;2023-07-31T09:48:18;24.80;84.00
37782;DHT22;23621;50.878;4.584;2023-07-31T09:51:05;24.80;84.00
37782;DHT22;23621;50.878;4.584;2023-07-31T09:53:52;24.90;83.70
37782;DHT22;23621;50.878;4.584;2023-07-31T09:56:47;25.00;84.00
37782;DHT22;23621;50.878;4.584;2023-07-31T09:59:35;25.00;84.20
37782;DHT22;23621;50.878;4.584;2023-07-31T10:02:23;25.00;84.20
37782;DHT22;23621;50.878;4.584;2023-07-31T10:05:15;25.00;84.40
37782;DHT22;23621;50.878;4.584;2023-07-31T10:08:03;24.90;84.80
37782;DHT22;23621;50.878;4.584;2023-07-31T10:10:50;24.80;84.70
37782;DHT22;23621;50.878;4.584;2023-07-31T10:13:38;24.80;85.90
37782;DHT22;23621;50.878;4.584;2023-07-31T10:16:26;24.90;85.90
37782;DHT22;23621;50.878;4.584;2023-07-31T10:19:14;25.00;86.40
37782;DHT22;23621;50.878;4.584;2023-07-31T10:22:03;25.00;86.20
37782;DHT22;23621;50.878;4.584;2023-07-31T10:24:52;25.00;86.60
37782;DHT22;23621;50.878;4.584;2023-07-31T10:27:41;25.10;86.40
37782;DHT22;23621;50.878;4.584;2023-07-31T10:30:31;25.30;86.20
37782;DHT22;23621;50.878;4.584;2023-07-31T10:33:20;25.30;86.30
37782;DHT22;23621;50.878;4.584;2023-07-31T10:36:16;25.40;85.60
37782;DHT22;23621;50.878;4.584;2023-07-31T10:39:04;25.50;85.20
37782;DHT22;23621;50.878;4.584;2023-07-31T10:41:51;25.60;84.90
37782;DHT22;23621;50.878;4.584;2023-07-31T10:44:44;25.70;84.40
37782;DHT22;23621;50.878;4.584;2023-07-31T10:47:37;25.60;84.20
37782;DHT22;23621;50.878;4.584;2023-07-31T10:50:25;25.50;84.00
37782;DHT22;23621;50.878;4.584;2023-07-31T10:56:10;25.50;83.60
37782;DHT22;23621;50.878;4.584;2023-07-31T10:59:05;25.50;83.70
37782;DHT22;23621;50.878;4.584;2023-07-31T11:01:54;25.50;83.70
37782;DHT22;23621;50.878;4.584;2023-07-31T11:04:44;25.50;83.70
37782;DHT22;23621;50.878;4.584;2023-07-31T11:07:47;25.60;83.40
37782;DHT22;23621;50.878;4.584;2023-07-31T11:10:34;25.60;83.60
37782;DHT22;23621;50.878;4.584;2023-07-31T11:13:21;25.70;83.30
37782;DHT22;23621;50.878;4.584;2023-07-31T11:16:09;25.60;83.10
37782;DHT22;23621;50.878;4.584;2023-07-31T11:18:57;25.70;82.90
37782;DHT22;23621;50.878;4.584;2023-07-31T11:21:44;25.70;82.40
37782;DHT22;23621;50.878;4.584;2023-07-31T11:24:31;25.70;82.30
37782;DHT22;23621;50.878;4.584;2023-07-31T11:27:18;25.80;82.10
37782;DHT22;23621;50.878;4.584;2023-07-31T11:30:06;25.80;81.80
37782;DHT22;23621;50.878;4.584;2023-07-31T11:32:55;25.80;81.70
37782;DHT22;23621;50.878;4.584;2023-07-31T11:35:45;26.00;81.90
37782;DHT22;23621;50.878;4.584;2023-07-31T11:38:33;26.10;81.50
37782;DHT22;23621;50.878;4.584;2023-07-31T11:41:21;26.20;81.30
37782;DHT22;23621;50.878;4.584;2023-07-31T11:44:08;26.20;80.90
37782;DHT22;23621;50.878;4.584;2023-07-31T11:47:13;26.20;80.50
37782;DHT22;23621;50.878;4.584;2023-07-31T11:50:01;26.20;80.30
37782;DHT22;23621;50.878;4.584;2023-07-31T11:52:50;26.20;80.60
37782;DHT22;23621;50.878;4.584;2023-07-31T11:55:38;26.20;80.40
37782;DHT22;23621;50.878;4.584;2023-07-31T11:58:27;26.20;80.40
37782;DHT22;23621;50.878;4.584;2023-07-31T12:01:16;26.20;80.30
37782;DHT22;23621;50.878;4.584;2023-07-31T12:04:05;26.20;80.00
37782;DHT22;23621;50.878;4.584;2023-07-31T12:06:55;26.20;79.90
37782;DHT22;23621;50.878;4.584;2023-07-31T12:09:55;26.20;79.80
37782;DHT22;23621;50.878;4.584;2023-07-31T12:12:42;26.20;80.00
37782;DHT22;23621;50.878;4.584;2023-07-31T12:15:40;26.20;80.00
37782;DHT22;23621;50.878;4.584;2023-07-31T12:18:37;26.30;79.80
37782;DHT22;23621;50.878;4.584;2023-07-31T12:21:27;26.40;80.10
37782;DHT22;23621;50.878;4.584;2023-07-31T12:24:14;26.50;79.90
37782;DHT22;23621;50.878;4.584;2023-07-31T12:27:09;26.50;79.60
37782;DHT22;23621;50.878;4.584;2023-07-31T12:29:56;26.50;79.60
37782;DHT22;23621;50.878;4.584;2023-07-31T12:32:43;26.40;79.30
37782;DHT22;23621;50.878;4.584;2023-07-31T12:35:37;26.30;79.20
37782;DHT22;23621;50.878;4.584;2023-07-31T12:38:24;26.30;79.10
37782;DHT22;23621;50.878;4.584;2023-07-31T12:41:12;26.10;79.30
37782;DHT22;23621;50.878;4.584;2023-07-31T12:43:59;26.20;79.40
37782;DHT22;23621;50.878;4.584;2023-07-31T12:46:47;26.20;79.60
37782;DHT22;23621;50.878;4.584;2023-07-31T12:49:34;26.30;79.70
37782;DHT22;23621;50.878;4.584;2023-07-31T12:52:21;26.30;79.90
37782;DHT22;23621;50.878;4.584;2023-07-31T12:55:08;26.20;79.90
37782;DHT22;23621;50.878;4.584;2023-07-31T12:57:57;26.40;79.80
37782;DHT22;23621;50.878;4.584;2023-07-31T13:00:45;26.50;79.80
37782;DHT22;23621;50.878;4.584;2023-07-31T13:03:32;26.40;79.80
37782;DHT22;23621;50.878;4.584;2023-07-31T13:06:19;26.50;79.80
37782;DHT22;23621;50.878;4.584;2023-07-31T13:09:07;26.40;79.90
37782;DHT22;23621;50.878;4.584;2023-07-31T13:11:54;26.40;79.90
37782;DHT22;23621;50.878;4.584;2023-07-31T13:14:41;26.20;80.00
37782;DHT22;23621;50.878;4.584;2023-07-31T13:17:28;26.10;80.30
37782;DHT22;23621;50.878;4.584;2023-07-31T13:20:16;26.00;80.40
37782;DHT22;23621;50.878;4.584;2023-07-31T13:23:03;25.90;80.40
37782;DHT22;23621;50.878;4.584;2023-07-31T13:25:50;26.10;80.40
37782;DHT22;23621;50.878;4.584;2023-07-31T13:28:37;26.00;80.50
37782;DHT22;23621;50.878;4.584;2023-07-31T13:31:25;26.00;80.50
37782;DHT22;23621;50.878;4.584;2023-07-31T13:34:12;26.00;80.90
37782;DHT22;23621;50.878;4.584;2023-07-31T13:36:59;26.00;80.90
37782;DHT22;23621;50.878;4.584;2023-07-31T13:39:46;26.00;81.10
37782;DHT22;23621;50.878;4.584;2023-07-31T13:42:33;25.90;82.20
37782;DHT22;23621;50.878;4.584;2023-07-31T13:45:21;25.80;82.80
37782;DHT22;23621;50.878;4.584;2023-07-31T13:48:08;25.60;83.40
37782;DHT22;23621;50.878;4.584;2023-07-31T13:50:56;25.50;83.90
37782;DHT22;23621;50.878;4.584;2023-07-31T13:53:43;25.50;84.30
37782;DHT22;23621;50.878;4.584;2023-07-31T13:56:30;25.40;85.00
37782;DHT22;23621;50.878;4.584;2023-07-31T13:59:17;25.30;85.20
37782;DHT22;23621;50.878;4.584;2023-07-31T14:02:05;25.20;86.00
37782;DHT22;23621;50.878;4.584;2023-07-31T14:04:52;25.20;86.60
37782;DHT22;23621;50.878;4.584;2023-07-31T14:07:39;25.20;86.50
37782;DHT22;23621;50.878;4.584;2023-07-31T14:10:27;25.20;86.60
37782;DHT22;23621;50.878;4.584;2023-07-31T14:13:14;25.20;86.70
37782;DHT22;23621;50.878;4.584;2023-07-31T14:16:01;25.30;86.60
37782;DHT22;23621;50.878;4.584;2023-07-31T14:18:48;25.30;87.00
37782;DHT22;23621;50.878;4.584;2023-07-31T14:21:36;25.30;86.70
37782;DHT22;23621;50.878;4.584;2023-07-31T14:24:23;25.30;87.10
37782;DHT22;23621;50.878;4.584;2023-07-31T14:27:10;25.20;87.50
37782;DHT22;23621;50.878;4.584;2023-07-31T14:29:58;25.20;87.70
37782;DHT22;23621;50.878;4.584;2023-07-31T14:32:45;25.10;88.20
37782;DHT22;23621;50.878;4.584;2023-07-31T14:35:34;25.20;87.90
37782;DHT22;23621;50.878;4.584;2023-07-31T14:38:21;25.20;87.80
37782;DHT22;23621;50.878;4.584;2023-07-31T14:41:08;25.30;87.60
37782;DHT22;23621;50.878;4.584;2023-07-31T14:43:55;25.20;87.90
37782;DHT22;23621;50.878;4.584;2023-07-31T14:46:43;25.00;88.40
37782;DHT22;23621;50.878;4.584;2023-07-31T14:49:30;25.00;88.40
37782;DHT22;23621;50.878;4.584;2023-07-31T14:52:17;25.20;88.20
37782;DHT22;23621;50.878;4.584;2023-07-31T14:55:05;25.20;88.20
37782;DHT22;23621;50.878;4.584;2023-07-31T14:57:52;25.20;88.20
37782;DHT22;23621;50.878;4.584;2023-07-31T15:00:39;25.20;88.40
37782;DHT22;23621;50.878;4.584;2023-07-31T15:03:27;25.20;88.40
37782;DHT22;23621;50.878;4.584;2023-07-31T15:06:14;25.20;88.30
37782;DHT22;23621;50.878;4.584;2023-07-31T15:09:01;25.30;88.40
37782;DHT22;23621;50.878;4.584;2023-07-31T15:11:49;25.20;88.50
37782;DHT22;23621;50.878;4.584;2023-07-31T15:14:36;25.30;88.50
37782;DHT22;23621;50.878;4.584;2023-07-31T15:17:23;25.40;88.40
37782;DHT22;23621;50.878;4.584;2023-07-31T15:20:11;25.30;88.50
37782;DHT22;23621;50.878;4.584;2023-07-31T15:22:59;25.20;88.50
37782;DHT22;23621;50.878;4.584;2023-07-31T15:25:46;25.30;88.70
37782;DHT22;23621;50.878;4.584;2023-07-31T15:28:33;25.30;88.70
37782;DHT22;23621;50.878;4.584;2023-07-31T15:31:22;25.20;88.70
37782;DHT22;23621;50.878;4.584;2023-07-31T15:34:09;25.30;88.70
37782;DHT22;23621;50.878;4.584;2023-07-31T15:36:56;25.30;88.90
37782;DHT22;23621;50.878;4.584;2023-07-31T15:39:43;25.20;89.00
37782;DHT22;23621;50.878;4.584;2023-07-31T15:42:31;25.20;89.30
37782;DHT22;23621;50.878;4.584;2023-07-31T15:45:20;25.10;89.30
37782;DHT22;23621;50.878;4.584;2023-07-31T15:48:07;25.10;89.30
37782;DHT22;23621;50.878;4.584;2023-07-31T15:50:55;25.10;90.10
37782;DHT22;23621;50.878;4.584;2023-07-31T15:53:42;25.10;89.60
37782;DHT22;23621;50.878;4.584;2023-07-31T15:56:29;25.10;89.60
37782;DHT22;23621;50.878;4.584;2023-07-31T15:59:19;25.00;89.80
37782;DHT22;23621;50.878;4.584;2023-07-31T16:02:08;25.00;90.00
37782;DHT22;23621;50.878;4.584;2023-07-31T16:04:58;25.00;89.80
37782;DHT22;23621;50.878;4.584;2023-07-31T16:07:45;25.00;89.80
37782;DHT22;23621;50.878;4.584;2023-07-31T16:10:32;24.80;90.00
37782;DHT22;23621;50.878;4.584;2023-07-31T16:13:19;24.80;90.00
37782;DHT22;23621;50.878;4.584;2023-07-31T16:16:07;24.80;90.10
37782;DHT22;23621;50.878;4.584;2023-07-31T16:18:54;24.80;90.10
37782;DHT22;23621;50.878;4.584;2023-07-31T16:21:41;24.90;90.10
37782;DHT22;23621;50.878;4.584;2023-07-31T16:24:29;24.80;90.10
37782;DHT22;23621;50.878;4.584;2023-07-31T16:27:16;24.90;90.10
37782;DHT22;23621;50.878;4.584;2023-07-31T16:30:06;24.90;90.10
37782;DHT22;23621;50.878;4.584;2023-07-31T16:32:54;24.90;90.20
37782;DHT22;23621;50.878;4.584;2023-07-31T16:35:41;25.00;90.20
37782;DHT22;23621;50.878;4.584;2023-07-31T16:38:28;24.90;90.30
37782;DHT22;23621;50.878;4.584;2023-07-31T16:41:16;24.90;90.30
37782;DHT22;23621;50.878;4.584;2023-07-31T16:44:03;24.90;90.40
37782;DHT22;23621;50.878;4.584;2023-07-31T16:46:50;24.80;90.40
37782;DHT22;23621;50.878;4.584;2023-07-31T16:49:37;24.80;90.40
37782;DHT22;23621;50.878;4.584;2023-07-31T16:52:25;24.70;90.50
37782;DHT22;23621;50.878;4.584;2023-07-31T16:55:12;24.70;90.60
37782;DHT22;23621;50.878;4.584;2023-07-31T16:57:59;24.80;90.60
37782;DHT22;23621;50.878;4.584;2023-07-31T17:00:46;24.80;90.70
37782;DHT22;23621;50.878;4.584;2023-07-31T17:03:34;24.60;90.70
37782;DHT22;23621;50.878;4.584;2023-07-31T17:06:21;24.60;90.80
37782;DHT22;23621;50.878;4.584;2023-07-31T17:09:09;24.60;90.90
37782;DHT22;23621;50.878;4.584;2023-07-31T17:11:56;24.50;91.00
37782;DHT22;23621;50.878;4.584;2023-07-31T17:14:43;24.50;90.90
37782;DHT22;23621;50.878;4.584;2023-07-31T17:17:30;24.50;91.00
37782;DHT22;23621;50.878;4.584;2023-07-31T17:20:18;24.50;91.10
37782;DHT22;23621;50.878;4.584;2023-07-31T17:23:05;24.60;91.00
37782;DHT22;23621;50.878;4.584;2023-07-31T17:25:52;24.60;91.00
37782;DHT22;23621;50.878;4.584;2023-07-31T17:28:40;24.60;91.10
37782;DHT22;23621;50.878;4.584;2023-07-31T17:31:27;24.60;91.00
37782;DHT22;23621;50.878;4.584;2023-07-31T17:34:15;24.60;91.10
37782;DHT22;23621;50.878;4.584;2023-07-31T17:37:02;24.60;91.20
37782;DHT22;23621;50.878;4.584;2023-07-31T17:39:49;24.60;91.10
37782;DHT22;23621;50.878;4.584;2023-07-31T17:42:36;24.70;91.10
37782;DHT22;23621;50.878;4.584;2023-07-31T17:45:24;24.70;91.10
37782;DHT22;23621;50.878;4.584;2023-07-31T17:48:11;24.70;91.00
37782;DHT22;23621;50.878;4.584;2023-07-31T17:50:58;24.70;91.10
37782;DHT22;23621;50.878;4.584;2023-07-31T17:53:45;24.70;91.10
37782;DHT22;23621;50.878;4.584;2023-07-31T17:56:33;24.80;91.00